MSC Clorinda — 3FDW7 — position and weather

sailwx.info

Track history (hours):
 
Tides and Currents Weather Stations Pressure Air Temp Water Temp Dewpoint Dewpoint Depression Visibility Wind Speed Wind Dir Waves Ship Positions

MSC Clorinda

Last reported at 2014-Aug-30 01:24 UTC. Time now 2014-Sep-01 23:55 UTC.
Position N 22°18' E 114°06'.

Length 366 m; draft 14.6 m.

Type: Ship (hazmat cat A). MMSI: 373233000.

Date/timePositionNaut miles runAvg speedWind from/ knotsBaromVisibWave heightAir tempDewpointWater temp
2014-Aug-30 01:24N 22°18' E 114°06'1010.4
2014-Aug-30 00:24N 22°21' E 113°55'6 7.6
2014-Aug-29 23:33N 22°27' E 113°53'0 0.1
2014-Aug-29 22:33N 22°28' E 113°53'0 0.1
2014-Aug-29 21:33N 22°28' E 113°53'0 0.0
2014-Aug-29 20:34N 22°28' E 113°53'0 0.0
2014-Aug-29 19:33N 22°28' E 113°53'0 0.0
2014-Aug-29 18:33N 22°28' E 113°53'0 0.0
2014-Aug-29 17:33N 22°28' E 113°53'0 0.0
2014-Aug-29 16:33N 22°28' E 113°53'0 0.0
2014-Aug-29 15:33N 22°28' E 113°53'0 0.0
2014-Aug-29 14:33N 22°28' E 113°53'0 0.0
2014-Aug-29 13:33N 22°28' E 113°53'0 0.0
2014-Aug-29 12:34N 22°28' E 113°53'0 0.0
2014-Aug-29 11:33N 22°28' E 113°53'0 0.0
2014-Aug-29 10:33N 22°28' E 113°53'0 0.0
2014-Aug-29 09:34N 22°28' E 113°53'0 0.0
2014-Aug-29 08:34N 22°28' E 113°53'0 0.0
2014-Aug-29 07:34N 22°28' E 113°53'0 0.0
2014-Aug-29 06:33N 22°28' E 113°53'0 0.0
2014-Aug-29 05:34N 22°28' E 113°53'0 0.0
2014-Aug-29 04:33N 22°28' E 113°53'0 0.0
2014-Aug-29 03:33N 22°28' E 113°53'0 0.0
2014-Aug-29 02:34N 22°28' E 113°53'0 0.0
2014-Aug-29 01:34N 22°28' E 113°53'2 1.7
2014-Aug-29 00:33N 22°26' E 113°52'1111.1
2014-Aug-28 23:33N 22°15' E 113°48'1010.5
2014-Aug-28 22:33N 22°05' E 113°51'2 2.4
2014-Aug-28 21:32N 22°03' E 113°50'2 1.9
2014-Aug-28 20:31N 22°05' E 113°52'0 0.1
2014-Aug-28 19:09N 22°05' E 113°52'0 0.1
2014-Aug-28 18:27N 22°05' E 113°52'0 0.1
2014-Aug-28 17:33N 22°05' E 113°51'0 0.0
2014-Aug-28 16:09N 22°05' E 113°51'0 0.0
2014-Aug-28 15:33N 22°05' E 113°51'0 0.1
2014-Aug-28 14:10N 22°05' E 113°51'3 5.6
2014-Aug-28 13:33N 22°02' E 113°53'11 9.7
2014-Aug-28 12:24N 22°08' E 114°03'11 5.9
2014-Aug-28 10:33N 22°19' E 114°06'2 0.4
2014-Aug-28 06:17N 22°20' E 114°07'0 0.0
2014-Aug-27 23:14N 22°20' E 114°07'0 0.0
2014-Aug-27 22:33N 22°20' E 114°07'0 0.0
2014-Aug-27 21:33N 22°20' E 114°07'0 0.0
2014-Aug-27 18:29N 22°20' E 114°07'1 0.2
2014-Aug-27 14:17N 22°20' E 114°07'  
2014-Aug-25 10:15N 22°38' E 116°60'810.8
2014-Aug-25 09:33N 22°42' E 117°06'1110.9
2014-Aug-25 08:30N 22°49' E 117°16'1111.1
2014-Aug-25 07:33N 22°56' E 117°25'1111.2
2014-Aug-25 06:33N 23°04' E 117°33'1511.0
2014-Aug-25 05:11N 23°16' E 117°43'1811.2
2014-Aug-25 03:33N 23°28' E 117°58'1111.3
2014-Aug-25 02:33N 23°36' E 118°06'1111.3
2014-Aug-25 01:33N 23°44' E 118°15'1615.5
2014-Aug-25 00:33N 23°54' E 118°28'1111.0
2014-Aug-24 23:33N 24°01' E 118°38'1110.9
2014-Aug-24 22:33N 24°07' E 118°48'1111.1
2014-Aug-24 21:33N 24°14' E 118°57'1311.5
2014-Aug-24 20:26N 24°21' E 119°09'910.5
2014-Aug-24 19:33N 24°27' E 119°17'1311.0
2014-Aug-24 18:23N 24°34' E 119°28'1011.0
2014-Aug-24 17:29N 24°40' E 119°37'1010.7
2014-Aug-24 16:32N 24°46' E 119°46'1110.8
2014-Aug-24 15:33N 24°53' E 119°55'1311.2
2014-Aug-24 14:25N 25°00' E 120°07'1011.5
2014-Aug-24 13:31N 25°06' E 120°16'1411.3
2014-Aug-24 12:14N 25°15' E 120°29'2011.1
2014-Aug-24 10:28N 25°26' E 120°46'2211.0
2014-Aug-24 08:28N 25°40' E 121°06'13010.7
2014-Aug-23 20:19N 27°25' E 122°31'134 7.6
2014-Aug-23 02:33N 29°39' E 122°37'1111.2
2014-Aug-23 01:33N 29°42' E 122°25'1211.9
2014-Aug-23 00:33N 29°49' E 122°14'1110.7
2014-Aug-22 23:33N 29°54' E 122°03'0 0.2
2014-Aug-22 22:32N 29°54' E 122°02'0 0.0
2014-Aug-22 21:32N 29°54' E 122°02'0 0.0
2014-Aug-22 20:31N 29°54' E 122°02'0 0.0
2014-Aug-22 19:32N 29°54' E 122°02'0 0.0
2014-Aug-22 18:31N 29°54' E 122°02'0 0.0
2014-Aug-22 17:25N 29°54' E 122°02'0 0.0
2014-Aug-22 16:25N 29°54' E 122°02'0 0.0
2014-Aug-22 15:31N 29°54' E 122°02'0 0.0
2014-Aug-22 14:32N 29°54' E 122°02'0 0.0
2014-Aug-22 13:31N 29°54' E 122°02'0 0.0
2014-Aug-22 12:31N 29°54' E 122°02'0 0.0
2014-Aug-22 11:31N 29°54' E 122°02'0 0.0
2014-Aug-22 10:31N 29°54' E 122°02'0 0.0
2014-Aug-22 09:31N 29°54' E 122°02'0 0.0
2014-Aug-22 08:31N 29°54' E 122°02'0 0.0
2014-Aug-22 07:31N 29°54' E 122°02'0 0.0
2014-Aug-22 06:31N 29°54' E 122°02'0 0.0
2014-Aug-22 05:31N 29°54' E 122°02'0 0.0
2014-Aug-22 04:31N 29°54' E 122°02'0 0.0
2014-Aug-22 03:33N 29°54' E 122°02'6 5.5
2014-Aug-22 02:33N 29°55' E 122°08'1111.4
2014-Aug-22 01:33N 29°47' E 122°17'9 9.5
2014-Aug-22 00:33N 29°44' E 122°27'1111.1
2014-Aug-21 23:33N 29°45' E 122°40'1514.8
2014-Aug-21 22:33N 29°55' E 122°53'8514.2
2014-Aug-21 16:33N 30°57' E 123°60'34413.6
2014-Aug-20 15:12N 35°57' E 120°39'1015.2
2014-Aug-20 14:33N 35°60' E 120°27'1110.7
2014-Aug-20 13:33N 36°01' E 120°13'1 0.8
2014-Aug-20 12:14N 36°00' E 120°12'0 0.0
2014-Aug-20 11:33N 36°00' E 120°12'0 0.0
2014-Aug-20 10:29N 36°00' E 120°12'0 0.0
2014-Aug-20 09:19N 36°00' E 120°12'0 0.0
2014-Aug-20 08:30N 36°00' E 120°12'0 0.0
2014-Aug-20 07:09N 36°00' E 120°12'0 0.0
2014-Aug-20 05:22N 36°00' E 120°12'0 0.0
2014-Aug-20 04:27N 36°00' E 120°12'0 0.0
2014-Aug-20 03:33N 36°00' E 120°12'0 0.0
2014-Aug-20 02:20N 36°00' E 120°12'0 0.5
2014-Aug-20 01:32N 36°01' E 120°13'  
Track history (hours):
 
Tides and Currents Weather Stations Pressure Air Temp Water Temp Dewpoint Dewpoint Depression Visibility Wind Speed Wind Dir Waves Ship Positions

MSC Clorinda

Last reported at 2014-Aug-30 01:24 UTC. Time now 2014-Sep-01 23:55 UTC.
Position N 22°18' E 114°06'.

Length 366 m; draft 14.6 m.

Type: Ship (hazmat cat A). MMSI: 373233000.

Date/timePositionNaut miles runAvg speedWind from/ knotsBaromVisibWave heightAir tempDewpointWater temp
2014-Aug-30 01:24N 22°18' E 114°06'1010.4
2014-Aug-30 00:24N 22°21' E 113°55'6 7.6
2014-Aug-29 23:33N 22°27' E 113°53'0 0.1
2014-Aug-29 22:33N 22°28' E 113°53'0 0.1
2014-Aug-29 21:33N 22°28' E 113°53'0 0.0
2014-Aug-29 20:34N 22°28' E 113°53'0 0.0
2014-Aug-29 19:33N 22°28' E 113°53'0 0.0
2014-Aug-29 18:33N 22°28' E 113°53'0 0.0
2014-Aug-29 17:33N 22°28' E 113°53'0 0.0
2014-Aug-29 16:33N 22°28' E 113°53'0 0.0
2014-Aug-29 15:33N 22°28' E 113°53'0 0.0
2014-Aug-29 14:33N 22°28' E 113°53'0 0.0
2014-Aug-29 13:33N 22°28' E 113°53'0 0.0
2014-Aug-29 12:34N 22°28' E 113°53'0 0.0
2014-Aug-29 11:33N 22°28' E 113°53'0 0.0
2014-Aug-29 10:33N 22°28' E 113°53'0 0.0
2014-Aug-29 09:34N 22°28' E 113°53'0 0.0
2014-Aug-29 08:34N 22°28' E 113°53'0 0.0
2014-Aug-29 07:34N 22°28' E 113°53'0 0.0
2014-Aug-29 06:33N 22°28' E 113°53'0 0.0
2014-Aug-29 05:34N 22°28' E 113°53'0 0.0
2014-Aug-29 04:33N 22°28' E 113°53'0 0.0
2014-Aug-29 03:33N 22°28' E 113°53'0 0.0
2014-Aug-29 02:34N 22°28' E 113°53'0 0.0
2014-Aug-29 01:34N 22°28' E 113°53'2 1.7
2014-Aug-29 00:33N 22°26' E 113°52'1111.1
2014-Aug-28 23:33N 22°15' E 113°48'1010.5
2014-Aug-28 22:33N 22°05' E 113°51'2 2.4
2014-Aug-28 21:32N 22°03' E 113°50'2 1.9
2014-Aug-28 20:31N 22°05' E 113°52'0 0.1
2014-Aug-28 19:09N 22°05' E 113°52'0 0.1
2014-Aug-28 18:27N 22°05' E 113°52'0 0.1
2014-Aug-28 17:33N 22°05' E 113°51'0 0.0
2014-Aug-28 16:09N 22°05' E 113°51'0 0.0
2014-Aug-28 15:33N 22°05' E 113°51'0 0.1
2014-Aug-28 14:10N 22°05' E 113°51'3 5.6
2014-Aug-28 13:33N 22°02' E 113°53'11 9.7
2014-Aug-28 12:24N 22°08' E 114°03'11 5.9
2014-Aug-28 10:33N 22°19' E 114°06'2 0.4
2014-Aug-28 06:17N 22°20' E 114°07'0 0.0
2014-Aug-27 23:14N 22°20' E 114°07'0 0.0
2014-Aug-27 22:33N 22°20' E 114°07'0 0.0
2014-Aug-27 21:33N 22°20' E 114°07'0 0.0
2014-Aug-27 18:29N 22°20' E 114°07'1 0.2
2014-Aug-27 14:17N 22°20' E 114°07'  
2014-Aug-25 10:15N 22°38' E 116°60'810.8
2014-Aug-25 09:33N 22°42' E 117°06'1110.9
2014-Aug-25 08:30N 22°49' E 117°16'1111.1
2014-Aug-25 07:33N 22°56' E 117°25'1111.2
2014-Aug-25 06:33N 23°04' E 117°33'1511.0
2014-Aug-25 05:11N 23°16' E 117°43'1811.2
2014-Aug-25 03:33N 23°28' E 117°58'1111.3
2014-Aug-25 02:33N 23°36' E 118°06'1111.3
2014-Aug-25 01:33N 23°44' E 118°15'1615.5
2014-Aug-25 00:33N 23°54' E 118°28'1111.0
2014-Aug-24 23:33N 24°01' E 118°38'1110.9
2014-Aug-24 22:33N 24°07' E 118°48'1111.1
2014-Aug-24 21:33N 24°14' E 118°57'1311.5
2014-Aug-24 20:26N 24°21' E 119°09'910.5
2014-Aug-24 19:33N 24°27' E 119°17'1311.0
2014-Aug-24 18:23N 24°34' E 119°28'1011.0
2014-Aug-24 17:29N 24°40' E 119°37'1010.7
2014-Aug-24 16:32N 24°46' E 119°46'1110.8
2014-Aug-24 15:33N 24°53' E 119°55'1311.2
2014-Aug-24 14:25N 25°00' E 120°07'1011.5
2014-Aug-24 13:31N 25°06' E 120°16'1411.3
2014-Aug-24 12:14N 25°15' E 120°29'2011.1
2014-Aug-24 10:28N 25°26' E 120°46'2211.0
2014-Aug-24 08:28N 25°40' E 121°06'13010.7
2014-Aug-23 20:19N 27°25' E 122°31'134 7.6
2014-Aug-23 02:33N 29°39' E 122°37'1111.2
2014-Aug-23 01:33N 29°42' E 122°25'1211.9
2014-Aug-23 00:33N 29°49' E 122°14'1110.7
2014-Aug-22 23:33N 29°54' E 122°03'0 0.2
2014-Aug-22 22:32N 29°54' E 122°02'0 0.0
2014-Aug-22 21:32N 29°54' E 122°02'0 0.0
2014-Aug-22 20:31N 29°54' E 122°02'0 0.0
2014-Aug-22 19:32N 29°54' E 122°02'0 0.0
2014-Aug-22 18:31N 29°54' E 122°02'0 0.0
2014-Aug-22 17:25N 29°54' E 122°02'0 0.0
2014-Aug-22 16:25N 29°54' E 122°02'0 0.0
2014-Aug-22 15:31N 29°54' E 122°02'0 0.0
2014-Aug-22 14:32N 29°54' E 122°02'0 0.0
2014-Aug-22 13:31N 29°54' E 122°02'0 0.0
2014-Aug-22 12:31N 29°54' E 122°02'0 0.0
2014-Aug-22 11:31N 29°54' E 122°02'0 0.0
2014-Aug-22 10:31N 29°54' E 122°02'0 0.0
2014-Aug-22 09:31N 29°54' E 122°02'0 0.0
2014-Aug-22 08:31N 29°54' E 122°02'0 0.0
2014-Aug-22 07:31N 29°54' E 122°02'0 0.0
2014-Aug-22 06:31N 29°54' E 122°02'0 0.0
2014-Aug-22 05:31N 29°54' E 122°02'0 0.0
2014-Aug-22 04:31N 29°54' E 122°02'0 0.0
2014-Aug-22 03:33N 29°54' E 122°02'6 5.5
2014-Aug-22 02:33N 29°55' E 122°08'1111.4
2014-Aug-22 01:33N 29°47' E 122°17'9 9.5
2014-Aug-22 00:33N 29°44' E 122°27'1111.1
2014-Aug-21 23:33N 29°45' E 122°40'1514.8
2014-Aug-21 22:33N 29°55' E 122°53'8514.2
2014-Aug-21 16:33N 30°57' E 123°60'34413.6
2014-Aug-20 15:12N 35°57' E 120°39'1015.2
2014-Aug-20 14:33N 35°60' E 120°27'1110.7
2014-Aug-20 13:33N 36°01' E 120°13'1 0.8
2014-Aug-20 12:14N 36°00' E 120°12'0 0.0
2014-Aug-20 11:33N 36°00' E 120°12'0 0.0
2014-Aug-20 10:29N 36°00' E 120°12'0 0.0
2014-Aug-20 09:19N 36°00' E 120°12'0 0.0
2014-Aug-20 08:30N 36°00' E 120°12'0 0.0
2014-Aug-20 07:09N 36°00' E 120°12'0 0.0
2014-Aug-20 05:22N 36°00' E 120°12'0 0.0
2014-Aug-20 04:27N 36°00' E 120°12'0 0.0
2014-Aug-20 03:33N 36°00' E 120°12'0 0.0
2014-Aug-20 02:20N 36°00' E 120°12'0 0.5
2014-Aug-20 01:32N 36°01' E 120°13'  

Dump ship's entire track history